Maldives Meteorological Service

SYNOP

Station Code SYNOP
43555
AAXX 19034 43555 41457 40708 10289 20226 30131 40133 70521 82231 333 20264 59006 82818 555 12073=
43533
AAXX 19034 43533 41459 20503 10276 20231 30133 40135 70500 81101 333 20232 59006 81819 555 11233=
43577
AAXX 19034 43577 42461 50505 10281 20230 30130 40132 81232 333 20261 59006 81818 83363 555 12446=
43588
AAXX 19034 43588 42460 79902 10286 20246 30131 40132 82238 333 20266 59004 82818 87277 555 12421=
43599
AAXX 19034 43599 42458 50504 10290 20236 30131 40133 82201 333 20268 59006 82818 85077 555 12369=
Last Updated : 2018-12-19 08:00:25